Beardsley, Minnesota
Current Conditions -  °F | °C
As of 6:16 AM on Thursday 29 Jan 2015 (Local Time) from KETH Reporting Station
Overcast Overcast  
Wind Chill: 10°   Ceiling: 1700
Heat Index: 25°   Visibility: 10mi
Dew Point: 19°   Wind: 22mph
Humidity: 80%   Direction: 310°NW
Pressure: 30.28"   Gusts: 29mph
Location:  45.56°N, 96.71°W
Report Text: KETH 291216Z AUTO 31019G25KT 10SM OVC017 M04/M07 A3028 RMK AO2
Loading
Personal Weather Stations






























Interactive Weather Map New forecast layout! Learn more

10-Day Weather Forecast

Advertisements
Track Severe Weather on mobile